sensor_id;sensor_type;location;lat;lon;timestamp;temperature;humidity
12152;DHT22;6139;51.274;7.128;2023-11-21T00:00:14;8.00;99.90
12152;DHT22;6139;51.274;7.128;2023-11-21T00:01:16;8.00;99.90
12152;DHT22;6139;51.274;7.128;2023-11-21T00:02:18;8.00;99.90
12152;DHT22;6139;51.274;7.128;2023-11-21T00:03:19;8.00;99.90
12152;DHT22;6139;51.274;7.128;2023-11-21T00:04:20;8.00;99.90
12152;DHT22;6139;51.274;7.128;2023-11-21T00:05:23;8.00;99.90
12152;DHT22;6139;51.274;7.128;2023-11-21T00:06:24;8.00;99.90
12152;DHT22;6139;51.274;7.128;2023-11-21T00:07:26;8.10;99.90
12152;DHT22;6139;51.274;7.128;2023-11-21T00:08:28;8.10;99.90
12152;DHT22;6139;51.274;7.128;2023-11-21T00:09:30;8.10;99.90
12152;DHT22;6139;51.274;7.128;2023-11-21T00:10:31;8.10;99.90
12152;DHT22;6139;51.274;7.128;2023-11-21T00:11:33;8.10;99.90
12152;DHT22;6139;51.274;7.128;2023-11-21T00:12:34;8.10;99.90
12152;DHT22;6139;51.274;7.128;2023-11-21T00:13:36;8.10;99.90
12152;DHT22;6139;51.274;7.128;2023-11-21T00:14:37;8.10;99.90
12152;DHT22;6139;51.274;7.128;2023-11-21T00:15:41;8.10;99.90
12152;DHT22;6139;51.274;7.128;2023-11-21T00:16:42;8.10;99.90
12152;DHT22;6139;51.274;7.128;2023-11-21T00:17:44;8.10;99.90
12152;DHT22;6139;51.274;7.128;2023-11-21T00:18:45;8.10;99.90
12152;DHT22;6139;51.274;7.128;2023-11-21T00:19:48;8.10;99.90
12152;DHT22;6139;51.274;7.128;2023-11-21T00:20:49;8.10;99.90
12152;DHT22;6139;51.274;7.128;2023-11-21T00:21:50;8.10;99.90
12152;DHT22;6139;51.274;7.128;2023-11-21T00:22:51;8.10;99.90
12152;DHT22;6139;51.274;7.128;2023-11-21T00:23:53;8.10;99.90
12152;DHT22;6139;51.274;7.128;2023-11-21T00:24:54;8.10;99.90
12152;DHT22;6139;51.274;7.128;2023-11-21T00:25:56;8.10;99.90
12152;DHT22;6139;51.274;7.128;2023-11-21T00:26:57;8.10;99.90
12152;DHT22;6139;51.274;7.128;2023-11-21T00:27:59;8.10;99.90
12152;DHT22;6139;51.274;7.128;2023-11-21T00:29:02;8.10;99.90
12152;DHT22;6139;51.274;7.128;2023-11-21T00:30:05;8.10;99.90
12152;DHT22;6139;51.274;7.128;2023-11-21T00:31:09;8.10;99.90
12152;DHT22;6139;51.274;7.128;2023-11-21T00:32:11;8.10;99.90
12152;DHT22;6139;51.274;7.128;2023-11-21T00:33:12;8.10;99.90
12152;DHT22;6139;51.274;7.128;2023-11-21T00:34:14;8.10;99.90
12152;DHT22;6139;51.274;7.128;2023-11-21T00:35:15;8.10;99.90
12152;DHT22;6139;51.274;7.128;2023-11-21T00:36:18;8.10;99.90
12152;DHT22;6139;51.274;7.128;2023-11-21T00:37:20;8.10;99.90
12152;DHT22;6139;51.274;7.128;2023-11-21T00:38:22;8.20;99.90
12152;DHT22;6139;51.274;7.128;2023-11-21T00:39:23;8.20;99.90
12152;DHT22;6139;51.274;7.128;2023-11-21T00:40:24;8.20;99.90
12152;DHT22;6139;51.274;7.128;2023-11-21T00:41:27;8.20;99.90
12152;DHT22;6139;51.274;7.128;2023-11-21T00:42:28;8.20;99.90
12152;DHT22;6139;51.274;7.128;2023-11-21T00:43:30;8.20;99.90
12152;DHT22;6139;51.274;7.128;2023-11-21T00:44:31;8.20;99.90
12152;DHT22;6139;51.274;7.128;2023-11-21T00:45:32;8.20;99.90
12152;DHT22;6139;51.274;7.128;2023-11-21T00:46:35;8.20;99.90
12152;DHT22;6139;51.274;7.128;2023-11-21T00:47:36;8.20;99.90
12152;DHT22;6139;51.274;7.128;2023-11-21T00:48:39;8.20;99.90
12152;DHT22;6139;51.274;7.128;2023-11-21T00:49:40;8.20;99.90
12152;DHT22;6139;51.274;7.128;2023-11-21T00:50:43;8.20;99.90
12152;DHT22;6139;51.274;7.128;2023-11-21T00:51:44;8.20;99.90
12152;DHT22;6139;51.274;7.128;2023-11-21T00:52:46;8.20;99.90
12152;DHT22;6139;51.274;7.128;2023-11-21T00:53:47;8.10;99.90
12152;DHT22;6139;51.274;7.128;2023-11-21T00:54:49;8.10;99.90
12152;DHT22;6139;51.274;7.128;2023-11-21T00:55:50;8.10;99.90
12152;DHT22;6139;51.274;7.128;2023-11-21T00:56:53;8.10;99.90
12152;DHT22;6139;51.274;7.128;2023-11-21T00:57:54;8.10;99.90
12152;DHT22;6139;51.274;7.128;2023-11-21T00:58:55;8.10;99.90
12152;DHT22;6139;51.274;7.128;2023-11-21T00:59:57;8.20;99.90
12152;DHT22;6139;51.274;7.128;2023-11-21T01:00:58;8.20;99.90
12152;DHT22;6139;51.274;7.128;2023-11-21T01:02:01;8.10;99.90
12152;DHT22;6139;51.274;7.128;2023-11-21T01:03:06;8.20;99.90
12152;DHT22;6139;51.274;7.128;2023-11-21T01:04:08;8.20;99.90
12152;DHT22;6139;51.274;7.128;2023-11-21T01:05:10;8.10;99.90
12152;DHT22;6139;51.274;7.128;2023-11-21T01:06:11;8.10;99.90
12152;DHT22;6139;51.274;7.128;2023-11-21T01:07:13;8.10;99.90
12152;DHT22;6139;51.274;7.128;2023-11-21T01:08:14;8.10;99.90
12152;DHT22;6139;51.274;7.128;2023-11-21T01:09:16;8.10;99.90
12152;DHT22;6139;51.274;7.128;2023-11-21T01:10:20;8.10;99.90
12152;DHT22;6139;51.274;7.128;2023-11-21T01:11:21;8.10;99.90
12152;DHT22;6139;51.274;7.128;2023-11-21T01:12:22;8.10;99.90
12152;DHT22;6139;51.274;7.128;2023-11-21T01:13:25;8.10;99.90
12152;DHT22;6139;51.274;7.128;2023-11-21T01:14:29;8.10;99.90
12152;DHT22;6139;51.274;7.128;2023-11-21T01:15:31;8.10;99.90
12152;DHT22;6139;51.274;7.128;2023-11-21T01:16:33;8.10;99.90
12152;DHT22;6139;51.274;7.128;2023-11-21T01:17:36;8.10;99.90
12152;DHT22;6139;51.274;7.128;2023-11-21T01:18:38;8.10;99.90
12152;DHT22;6139;51.274;7.128;2023-11-21T01:19:40;8.10;99.90
12152;DHT22;6139;51.274;7.128;2023-11-21T01:20:41;8.10;99.90
12152;DHT22;6139;51.274;7.128;2023-11-21T01:21:42;8.10;99.90
12152;DHT22;6139;51.274;7.128;2023-11-21T01:22:44;8.10;99.90
12152;DHT22;6139;51.274;7.128;2023-11-21T01:23:45;8.10;99.90
12152;DHT22;6139;51.274;7.128;2023-11-21T01:24:48;8.10;99.90
12152;DHT22;6139;51.274;7.128;2023-11-21T01:25:49;8.10;99.90
12152;DHT22;6139;51.274;7.128;2023-11-21T01:26:52;8.10;99.90
12152;DHT22;6139;51.274;7.128;2023-11-21T01:27:53;8.10;99.90
12152;DHT22;6139;51.274;7.128;2023-11-21T01:28:55;8.10;99.90
12152;DHT22;6139;51.274;7.128;2023-11-21T01:29:56;8.10;99.90
12152;DHT22;6139;51.274;7.128;2023-11-21T01:30:57;8.10;99.90
12152;DHT22;6139;51.274;7.128;2023-11-21T01:31:59;8.10;99.90
12152;DHT22;6139;51.274;7.128;2023-11-21T01:33:01;8.10;99.90
12152;DHT22;6139;51.274;7.128;2023-11-21T01:34:04;8.10;99.90
12152;DHT22;6139;51.274;7.128;2023-11-21T01:35:05;8.10;99.90
12152;DHT22;6139;51.274;7.128;2023-11-21T01:36:08;8.10;99.90
12152;DHT22;6139;51.274;7.128;2023-11-21T01:37:10;8.10;99.90
12152;DHT22;6139;51.274;7.128;2023-11-21T01:38:12;8.10;99.90
12152;DHT22;6139;51.274;7.128;2023-11-21T01:39:15;8.10;99.90
12152;DHT22;6139;51.274;7.128;2023-11-21T01:40:17;8.10;99.90
12152;DHT22;6139;51.274;7.128;2023-11-21T01:41:19;8.10;99.90
12152;DHT22;6139;51.274;7.128;2023-11-21T01:42:21;8.10;99.90
12152;DHT22;6139;51.274;7.128;2023-11-21T01:43:22;8.10;99.90
12152;DHT22;6139;51.274;7.128;2023-11-21T01:44:24;8.10;99.90
12152;DHT22;6139;51.274;7.128;2023-11-21T01:45:26;8.20;99.90
12152;DHT22;6139;51.274;7.128;2023-11-21T01:46:30;8.20;99.90
12152;DHT22;6139;51.274;7.128;2023-11-21T01:47:31;8.10;99.90
12152;DHT22;6139;51.274;7.128;2023-11-21T01:48:35;8.10;99.90
12152;DHT22;6139;51.274;7.128;2023-11-21T01:49:37;8.10;99.90
12152;DHT22;6139;51.274;7.128;2023-11-21T01:50:39;8.10;99.90
12152;DHT22;6139;51.274;7.128;2023-11-21T01:51:41;8.10;99.90
12152;DHT22;6139;51.274;7.128;2023-11-21T01:52:45;8.10;99.90
12152;DHT22;6139;51.274;7.128;2023-11-21T01:53:47;8.10;99.90
12152;DHT22;6139;51.274;7.128;2023-11-21T01:54:50;8.10;99.90
12152;DHT22;6139;51.274;7.128;2023-11-21T01:55:51;8.00;99.90
12152;DHT22;6139;51.274;7.128;2023-11-21T01:56:54;8.00;99.90
12152;DHT22;6139;51.274;7.128;2023-11-21T01:57:56;8.00;99.90
12152;DHT22;6139;51.274;7.128;2023-11-21T01:58:59;8.10;99.90
12152;DHT22;6139;51.274;7.128;2023-11-21T02:00:01;8.00;99.90
12152;DHT22;6139;51.274;7.128;2023-11-21T02:01:15;8.00;99.90
12152;DHT22;6139;51.274;7.128;2023-11-21T02:02:19;8.00;99.90
12152;DHT22;6139;51.274;7.128;2023-11-21T02:03:21;8.00;99.90
12152;DHT22;6139;51.274;7.128;2023-11-21T02:04:24;8.00;99.90
12152;DHT22;6139;51.274;7.128;2023-11-21T02:05:26;8.00;99.90
12152;DHT22;6139;51.274;7.128;2023-11-21T02:06:27;8.00;99.90
12152;DHT22;6139;51.274;7.128;2023-11-21T02:07:32;8.00;99.90
12152;DHT22;6139;51.274;7.128;2023-11-21T02:08:33;8.00;99.90
12152;DHT22;6139;51.274;7.128;2023-11-21T02:09:35;8.00;99.90
12152;DHT22;6139;51.274;7.128;2023-11-21T02:10:38;8.00;99.90
12152;DHT22;6139;51.274;7.128;2023-11-21T02:11:41;8.00;99.90
12152;DHT22;6139;51.274;7.128;2023-11-21T02:12:44;8.10;99.90
12152;DHT22;6139;51.274;7.128;2023-11-21T02:13:46;8.00;99.90
12152;DHT22;6139;51.274;7.128;2023-11-21T02:14:48;8.00;99.90
12152;DHT22;6139;51.274;7.128;2023-11-21T02:15:50;8.00;99.90
12152;DHT22;6139;51.274;7.128;2023-11-21T02:16:54;8.00;99.90
12152;DHT22;6139;51.274;7.128;2023-11-21T02:17:57;8.00;99.90
12152;DHT22;6139;51.274;7.128;2023-11-21T02:18:59;8.00;99.90
12152;DHT22;6139;51.274;7.128;2023-11-21T02:20:04;8.00;99.90
12152;DHT22;6139;51.274;7.128;2023-11-21T02:21:07;8.00;99.90
12152;DHT22;6139;51.274;7.128;2023-11-21T02:22:11;8.00;99.90
12152;DHT22;6139;51.274;7.128;2023-11-21T02:23:14;8.00;99.90
12152;DHT22;6139;51.274;7.128;2023-11-21T02:24:15;8.00;99.90
12152;DHT22;6139;51.274;7.128;2023-11-21T02:25:18;7.90;99.90
12152;DHT22;6139;51.274;7.128;2023-11-21T02:26:19;7.90;99.90
12152;DHT22;6139;51.274;7.128;2023-11-21T02:27:21;8.00;99.90
12152;DHT22;6139;51.274;7.128;2023-11-21T02:28:24;8.00;99.90
12152;DHT22;6139;51.274;7.128;2023-11-21T02:29:27;8.00;99.90
12152;DHT22;6139;51.274;7.128;2023-11-21T02:30:29;8.00;99.90
12152;DHT22;6139;51.274;7.128;2023-11-21T02:31:32;8.00;99.90
12152;DHT22;6139;51.274;7.128;2023-11-21T02:32:33;8.00;99.90
12152;DHT22;6139;51.274;7.128;2023-11-21T02:33:35;8.00;99.90
12152;DHT22;6139;51.274;7.128;2023-11-21T02:34:37;7.90;99.90
12152;DHT22;6139;51.274;7.128;2023-11-21T02:35:38;7.90;99.90
12152;DHT22;6139;51.274;7.128;2023-11-21T02:36:40;7.90;99.90
12152;DHT22;6139;51.274;7.128;2023-11-21T02:37:43;7.90;99.90
12152;DHT22;6139;51.274;7.128;2023-11-21T02:38:46;7.90;99.90
12152;DHT22;6139;51.274;7.128;2023-11-21T02:39:47;7.90;99.90
12152;DHT22;6139;51.274;7.128;2023-11-21T02:40:49;7.90;99.90
12152;DHT22;6139;51.274;7.128;2023-11-21T02:41:50;7.90;99.90
12152;DHT22;6139;51.274;7.128;2023-11-21T02:42:52;7.90;99.90
12152;DHT22;6139;51.274;7.128;2023-11-21T02:43:54;7.90;99.90
12152;DHT22;6139;51.274;7.128;2023-11-21T02:44:56;7.90;99.90
12152;DHT22;6139;51.274;7.128;2023-11-21T02:45:57;7.90;99.90
12152;DHT22;6139;51.274;7.128;2023-11-21T02:46:59;7.90;99.90
12152;DHT22;6139;51.274;7.128;2023-11-21T02:48:02;7.90;99.90
12152;DHT22;6139;51.274;7.128;2023-11-21T02:49:05;7.90;99.90
12152;DHT22;6139;51.274;7.128;2023-11-21T02:50:07;7.90;99.90
12152;DHT22;6139;51.274;7.128;2023-11-21T02:51:10;7.90;99.90
12152;DHT22;6139;51.274;7.128;2023-11-21T02:52:11;7.90;99.90
12152;DHT22;6139;51.274;7.128;2023-11-21T02:53:13;7.90;99.90
12152;DHT22;6139;51.274;7.128;2023-11-21T02:54:15;7.90;99.90
12152;DHT22;6139;51.274;7.128;2023-11-21T02:55:17;7.90;99.90
12152;DHT22;6139;51.274;7.128;2023-11-21T02:56:18;7.90;99.90
12152;DHT22;6139;51.274;7.128;2023-11-21T02:57:20;7.90;99.90
12152;DHT22;6139;51.274;7.128;2023-11-21T02:58:21;8.00;99.90
12152;DHT22;6139;51.274;7.128;2023-11-21T02:59:23;8.00;99.90
12152;DHT22;6139;51.274;7.128;2023-11-21T03:00:25;8.00;99.90
12152;DHT22;6139;51.274;7.128;2023-11-21T03:01:28;8.00;99.90
12152;DHT22;6139;51.274;7.128;2023-11-21T03:02:29;8.00;99.90
12152;DHT22;6139;51.274;7.128;2023-11-21T03:03:31;8.00;99.90
12152;DHT22;6139;51.274;7.128;2023-11-21T03:04:31;8.00;99.90
12152;DHT22;6139;51.274;7.128;2023-11-21T03:05:35;8.00;99.90
12152;DHT22;6139;51.274;7.128;2023-11-21T03:06:37;8.00;99.90
12152;DHT22;6139;51.274;7.128;2023-11-21T03:07:40;8.00;99.90
12152;DHT22;6139;51.274;7.128;2023-11-21T03:08:40;8.00;99.90
12152;DHT22;6139;51.274;7.128;2023-11-21T03:09:44;7.90;99.90
12152;DHT22;6139;51.274;7.128;2023-11-21T03:10:46;7.90;99.90
12152;DHT22;6139;51.274;7.128;2023-11-21T03:11:46;8.00;99.90
12152;DHT22;6139;51.274;7.128;2023-11-21T03:12:48;8.00;99.90
12152;DHT22;6139;51.274;7.128;2023-11-21T03:13:49;8.00;99.90
12152;DHT22;6139;51.274;7.128;2023-11-21T03:14:51;8.00;99.90
12152;DHT22;6139;51.274;7.128;2023-11-21T03:15:52;8.00;99.90
12152;DHT22;6139;51.274;7.128;2023-11-21T03:16:54;8.00;99.90
12152;DHT22;6139;51.274;7.128;2023-11-21T03:17:56;8.00;99.90
12152;DHT22;6139;51.274;7.128;2023-11-21T03:18:58;8.00;99.90
12152;DHT22;6139;51.274;7.128;2023-11-21T03:19:59;8.00;99.90
12152;DHT22;6139;51.274;7.128;2023-11-21T03:21:01;8.00;99.90
12152;DHT22;6139;51.274;7.128;2023-11-21T03:22:02;8.10;99.90
12152;DHT22;6139;51.274;7.128;2023-11-21T03:23:05;8.10;99.90
12152;DHT22;6139;51.274;7.128;2023-11-21T03:24:06;8.10;99.90
12152;DHT22;6139;51.274;7.128;2023-11-21T03:25:10;8.10;99.90
12152;DHT22;6139;51.274;7.128;2023-11-21T03:26:12;8.10;99.90
12152;DHT22;6139;51.274;7.128;2023-11-21T03:27:14;8.10;99.90
12152;DHT22;6139;51.274;7.128;2023-11-21T03:28:15;8.00;99.90
12152;DHT22;6139;51.274;7.128;2023-11-21T03:29:17;8.00;99.90
12152;DHT22;6139;51.274;7.128;2023-11-21T03:30:18;8.00;99.90
12152;DHT22;6139;51.274;7.128;2023-11-21T03:31:20;8.00;99.90
12152;DHT22;6139;51.274;7.128;2023-11-21T03:32:21;8.00;99.90
12152;DHT22;6139;51.274;7.128;2023-11-21T03:33:24;8.00;99.90
12152;DHT22;6139;51.274;7.128;2023-11-21T03:34:27;8.00;99.90
12152;DHT22;6139;51.274;7.128;2023-11-21T03:35:29;8.00;99.90
12152;DHT22;6139;51.274;7.128;2023-11-21T03:36:30;8.00;99.90
12152;DHT22;6139;51.274;7.128;2023-11-21T03:37:32;8.00;99.90
12152;DHT22;6139;51.274;7.128;2023-11-21T03:38:33;8.00;99.90
12152;DHT22;6139;51.274;7.128;2023-11-21T03:39:35;8.00;99.90
12152;DHT22;6139;51.274;7.128;2023-11-21T03:40:37;8.00;99.90
12152;DHT22;6139;51.274;7.128;2023-11-21T03:41:40;8.00;99.90
12152;DHT22;6139;51.274;7.128;2023-11-21T03:42:41;8.00;99.90
12152;DHT22;6139;51.274;7.128;2023-11-21T03:43:42;8.00;99.90
12152;DHT22;6139;51.274;7.128;2023-11-21T03:44:47;7.90;99.90
12152;DHT22;6139;51.274;7.128;2023-11-21T03:45:48;7.90;99.90
12152;DHT22;6139;51.274;7.128;2023-11-21T03:46:51;7.90;99.90
12152;DHT22;6139;51.274;7.128;2023-11-21T03:47:52;7.90;99.90
12152;DHT22;6139;51.274;7.128;2023-11-21T03:48:54;7.90;99.90
12152;DHT22;6139;51.274;7.128;2023-11-21T03:49:56;7.90;99.90
12152;DHT22;6139;51.274;7.128;2023-11-21T03:50:57;7.90;99.90
12152;DHT22;6139;51.274;7.128;2023-11-21T03:51:59;7.90;99.90
12152;DHT22;6139;51.274;7.128;2023-11-21T03:53:00;7.90;99.90
12152;DHT22;6139;51.274;7.128;2023-11-21T03:54:03;7.90;99.90
12152;DHT22;6139;51.274;7.128;2023-11-21T03:55:05;7.90;99.90
12152;DHT22;6139;51.274;7.128;2023-11-21T03:56:10;7.90;99.90
12152;DHT22;6139;51.274;7.128;2023-11-21T03:57:11;7.90;99.90
12152;DHT22;6139;51.274;7.128;2023-11-21T03:58:13;7.90;99.90
12152;DHT22;6139;51.274;7.128;2023-11-21T03:59:14;7.90;99.90
12152;DHT22;6139;51.274;7.128;2023-11-21T04:00:16;7.90;99.90
12152;DHT22;6139;51.274;7.128;2023-11-21T04:01:21;7.90;99.90
12152;DHT22;6139;51.274;7.128;2023-11-21T04:02:22;7.90;99.90
12152;DHT22;6139;51.274;7.128;2023-11-21T04:03:25;7.90;99.90
12152;DHT22;6139;51.274;7.128;2023-11-21T04:04:26;7.90;99.90
12152;DHT22;6139;51.274;7.128;2023-11-21T04:05:28;7.90;99.90
12152;DHT22;6139;51.274;7.128;2023-11-21T04:06:30;7.90;99.90
12152;DHT22;6139;51.274;7.128;2023-11-21T04:07:33;7.90;99.90
12152;DHT22;6139;51.274;7.128;2023-11-21T04:08:34;7.90;99.90
12152;DHT22;6139;51.274;7.128;2023-11-21T04:09:35;7.90;99.90
12152;DHT22;6139;51.274;7.128;2023-11-21T04:10:37;7.90;99.90
12152;DHT22;6139;51.274;7.128;2023-11-21T04:11:41;7.90;99.90
12152;DHT22;6139;51.274;7.128;2023-11-21T04:12:43;7.90;99.90
12152;DHT22;6139;51.274;7.128;2023-11-21T04:13:45;7.90;99.90
12152;DHT22;6139;51.274;7.128;2023-11-21T04:14:47;7.90;99.90
12152;DHT22;6139;51.274;7.128;2023-11-21T04:15:49;7.90;99.90
12152;DHT22;6139;51.274;7.128;2023-11-21T04:16:50;7.90;99.90
12152;DHT22;6139;51.274;7.128;2023-11-21T04:17:52;7.90;99.90
12152;DHT22;6139;51.274;7.128;2023-11-21T04:18:53;7.90;99.90
12152;DHT22;6139;51.274;7.128;2023-11-21T04:19:55;7.90;99.90
12152;DHT22;6139;51.274;7.128;2023-11-21T04:20:56;7.90;99.90
12152;DHT22;6139;51.274;7.128;2023-11-21T04:21:58;7.90;99.90
12152;DHT22;6139;51.274;7.128;2023-11-21T04:22:59;7.90;99.90
12152;DHT22;6139;51.274;7.128;2023-11-21T04:24:01;7.90;99.90
12152;DHT22;6139;51.274;7.128;2023-11-21T04:25:02;7.90;99.90
12152;DHT22;6139;51.274;7.128;2023-11-21T04:26:04;7.90;99.90
12152;DHT22;6139;51.274;7.128;2023-11-21T04:27:07;7.90;99.90
12152;DHT22;6139;51.274;7.128;2023-11-21T04:28:08;7.90;99.90
12152;DHT22;6139;51.274;7.128;2023-11-21T04:29:10;7.80;99.90
12152;DHT22;6139;51.274;7.128;2023-11-21T04:30:12;7.80;99.90
12152;DHT22;6139;51.274;7.128;2023-11-21T04:31:15;7.80;99.90
12152;DHT22;6139;51.274;7.128;2023-11-21T04:32:16;7.90;99.90
12152;DHT22;6139;51.274;7.128;2023-11-21T04:33:18;7.80;99.90
12152;DHT22;6139;51.274;7.128;2023-11-21T04:34:19;7.90;99.90
12152;DHT22;6139;51.274;7.128;2023-11-21T04:35:21;7.80;99.90
12152;DHT22;6139;51.274;7.128;2023-11-21T04:36:22;7.90;99.90
12152;DHT22;6139;51.274;7.128;2023-11-21T04:37:23;7.90;99.90
12152;DHT22;6139;51.274;7.128;2023-11-21T04:38:25;7.90;99.90
12152;DHT22;6139;51.274;7.128;2023-11-21T04:39:27;7.90;99.90
12152;DHT22;6139;51.274;7.128;2023-11-21T04:40:28;7.90;99.90
12152;DHT22;6139;51.274;7.128;2023-11-21T04:41:29;7.90;99.90
12152;DHT22;6139;51.274;7.128;2023-11-21T04:42:35;7.90;99.90
12152;DHT22;6139;51.274;7.128;2023-11-21T04:43:37;7.90;99.90
12152;DHT22;6139;51.274;7.128;2023-11-21T04:44:38;7.90;99.90
12152;DHT22;6139;51.274;7.128;2023-11-21T04:45:41;7.90;99.90
12152;DHT22;6139;51.274;7.128;2023-11-21T04:46:43;7.90;99.90
12152;DHT22;6139;51.274;7.128;2023-11-21T04:47:45;7.90;99.90
12152;DHT22;6139;51.274;7.128;2023-11-21T04:48:46;7.90;99.90
12152;DHT22;6139;51.274;7.128;2023-11-21T04:49:48;7.90;99.90
12152;DHT22;6139;51.274;7.128;2023-11-21T04:50:49;7.80;99.90
12152;DHT22;6139;51.274;7.128;2023-11-21T04:51:51;7.80;99.90
12152;DHT22;6139;51.274;7.128;2023-11-21T04:52:52;7.80;99.90
12152;DHT22;6139;51.274;7.128;2023-11-21T04:53:53;7.80;99.90
12152;DHT22;6139;51.274;7.128;2023-11-21T04:54:55;7.80;99.90
12152;DHT22;6139;51.274;7.128;2023-11-21T04:55:58;7.80;99.90
12152;DHT22;6139;51.274;7.128;2023-11-21T04:57:00;7.80;99.90
12152;DHT22;6139;51.274;7.128;2023-11-21T04:58:02;7.80;99.90
12152;DHT22;6139;51.274;7.128;2023-11-21T04:59:05;7.80;99.90
12152;DHT22;6139;51.274;7.128;2023-11-21T05:00:07;7.70;99.90
12152;DHT22;6139;51.274;7.128;2023-11-21T05:01:09;7.70;99.90
12152;DHT22;6139;51.274;7.128;2023-11-21T05:02:10;7.70;99.90
12152;DHT22;6139;51.274;7.128;2023-11-21T05:03:13;7.70;99.90
12152;DHT22;6139;51.274;7.128;2023-11-21T05:04:14;7.70;99.90
12152;DHT22;6139;51.274;7.128;2023-11-21T05:05:16;7.70;99.90
12152;DHT22;6139;51.274;7.128;2023-11-21T05:06:17;7.70;99.90
12152;DHT22;6139;51.274;7.128;2023-11-21T05:07:19;7.70;99.90
12152;DHT22;6139;51.274;7.128;2023-11-21T05:08:20;7.70;99.90
12152;DHT22;6139;51.274;7.128;2023-11-21T05:09:23;7.70;99.90
12152;DHT22;6139;51.274;7.128;2023-11-21T05:10:24;7.70;99.90
12152;DHT22;6139;51.274;7.128;2023-11-21T05:11:25;7.70;99.90
12152;DHT22;6139;51.274;7.128;2023-11-21T05:12:27;7.70;99.90
12152;DHT22;6139;51.274;7.128;2023-11-21T05:13:29;7.70;99.90
12152;DHT22;6139;51.274;7.128;2023-11-21T05:14:30;7.80;99.90
12152;DHT22;6139;51.274;7.128;2023-11-21T05:15:32;7.70;99.90
12152;DHT22;6139;51.274;7.128;2023-11-21T05:16:34;7.70;99.90
12152;DHT22;6139;51.274;7.128;2023-11-21T05:17:36;7.70;99.90
12152;DHT22;6139;51.274;7.128;2023-11-21T05:18:37;7.70;99.90
12152;DHT22;6139;51.274;7.128;2023-11-21T05:19:39;7.70;99.90
12152;DHT22;6139;51.274;7.128;2023-11-21T05:20:41;7.70;99.90
12152;DHT22;6139;51.274;7.128;2023-11-21T05:21:44;7.70;99.90
12152;DHT22;6139;51.274;7.128;2023-11-21T05:22:44;7.70;99.90
12152;DHT22;6139;51.274;7.128;2023-11-21T05:23:46;7.70;99.90
12152;DHT22;6139;51.274;7.128;2023-11-21T05:24:47;7.70;99.90
12152;DHT22;6139;51.274;7.128;2023-11-21T05:25:48;7.70;99.90
12152;DHT22;6139;51.274;7.128;2023-11-21T05:26:50;7.70;99.90
12152;DHT22;6139;51.274;7.128;2023-11-21T05:27:51;7.60;99.90
12152;DHT22;6139;51.274;7.128;2023-11-21T05:28:55;7.60;99.90
12152;DHT22;6139;51.274;7.128;2023-11-21T05:29:56;7.60;99.90
12152;DHT22;6139;51.274;7.128;2023-11-21T05:30:57;7.60;99.90
12152;DHT22;6139;51.274;7.128;2023-11-21T05:31:59;7.60;99.90
12152;DHT22;6139;51.274;7.128;2023-11-21T05:33:00;7.60;99.90
12152;DHT22;6139;51.274;7.128;2023-11-21T05:34:03;7.60;99.90
12152;DHT22;6139;51.274;7.128;2023-11-21T05:35:06;7.60;99.90
12152;DHT22;6139;51.274;7.128;2023-11-21T05:36:10;7.60;99.90
12152;DHT22;6139;51.274;7.128;2023-11-21T05:37:12;7.60;99.90
12152;DHT22;6139;51.274;7.128;2023-11-21T05:38:13;7.60;99.90
12152;DHT22;6139;51.274;7.128;2023-11-21T05:39:16;7.60;99.90
12152;DHT22;6139;51.274;7.128;2023-11-21T05:40:18;7.60;99.90
12152;DHT22;6139;51.274;7.128;2023-11-21T05:41:22;7.60;99.90
12152;DHT22;6139;51.274;7.128;2023-11-21T05:42:24;7.60;99.90
12152;DHT22;6139;51.274;7.128;2023-11-21T05:43:26;7.60;99.90
12152;DHT22;6139;51.274;7.128;2023-11-21T05:44:30;7.60;99.90
12152;DHT22;6139;51.274;7.128;2023-11-21T05:45:32;7.60;99.90
12152;DHT22;6139;51.274;7.128;2023-11-21T05:46:33;7.60;99.90
12152;DHT22;6139;51.274;7.128;2023-11-21T05:47:36;7.50;99.90
12152;DHT22;6139;51.274;7.128;2023-11-21T05:48:38;7.50;99.90
12152;DHT22;6139;51.274;7.128;2023-11-21T05:49:40;7.50;99.90
12152;DHT22;6139;51.274;7.128;2023-11-21T05:50:41;7.50;99.90
12152;DHT22;6139;51.274;7.128;2023-11-21T05:51:43;7.50;99.90
12152;DHT22;6139;51.274;7.128;2023-11-21T05:52:45;7.50;99.90
12152;DHT22;6139;51.274;7.128;2023-11-21T05:53:47;7.50;99.90
12152;DHT22;6139;51.274;7.128;2023-11-21T05:54:48;7.40;99.90
12152;DHT22;6139;51.274;7.128;2023-11-21T05:55:50;7.40;99.90
12152;DHT22;6139;51.274;7.128;2023-11-21T05:56:51;7.40;99.90
12152;DHT22;6139;51.274;7.128;2023-11-21T05:57:53;7.40;99.90
12152;DHT22;6139;51.274;7.128;2023-11-21T05:58:54;7.40;99.90
12152;DHT22;6139;51.274;7.128;2023-11-21T05:59:57;7.40;99.90
12152;DHT22;6139;51.274;7.128;2023-11-21T06:00:58;7.40;99.90
12152;DHT22;6139;51.274;7.128;2023-11-21T06:01:59;7.40;99.90
12152;DHT22;6139;51.274;7.128;2023-11-21T06:03:03;7.40;99.90
12152;DHT22;6139;51.274;7.128;2023-11-21T06:04:04;7.40;99.90
12152;DHT22;6139;51.274;7.128;2023-11-21T06:05:09;7.40;99.90
12152;DHT22;6139;51.274;7.128;2023-11-21T06:06:10;7.40;99.90
12152;DHT22;6139;51.274;7.128;2023-11-21T06:07:12;7.40;99.90
12152;DHT22;6139;51.274;7.128;2023-11-21T06:08:13;7.40;99.90
12152;DHT22;6139;51.274;7.128;2023-11-21T06:09:17;7.40;99.90
12152;DHT22;6139;51.274;7.128;2023-11-21T06:10:20;7.30;99.90
12152;DHT22;6139;51.274;7.128;2023-11-21T06:11:22;7.30;99.90
12152;DHT22;6139;51.274;7.128;2023-11-21T06:12:23;7.30;99.90
12152;DHT22;6139;51.274;7.128;2023-11-21T06:13:25;7.40;99.90
12152;DHT22;6139;51.274;7.128;2023-11-21T06:14:26;7.40;99.90
12152;DHT22;6139;51.274;7.128;2023-11-21T06:15:30;7.40;99.90
12152;DHT22;6139;51.274;7.128;2023-11-21T06:16:31;7.40;99.90
12152;DHT22;6139;51.274;7.128;2023-11-21T06:17:33;7.50;99.90
12152;DHT22;6139;51.274;7.128;2023-11-21T06:18:36;7.40;99.90
12152;DHT22;6139;51.274;7.128;2023-11-21T06:19:38;7.50;99.90
12152;DHT22;6139;51.274;7.128;2023-11-21T06:20:39;7.50;99.90
12152;DHT22;6139;51.274;7.128;2023-11-21T06:21:45;7.50;99.90
12152;DHT22;6139;51.274;7.128;2023-11-21T06:22:48;7.50;99.90
12152;DHT22;6139;51.274;7.128;2023-11-21T06:23:50;7.50;99.90
12152;DHT22;6139;51.274;7.128;2023-11-21T06:24:53;7.50;99.90
12152;DHT22;6139;51.274;7.128;2023-11-21T06:25:55;7.50;99.90
12152;DHT22;6139;51.274;7.128;2023-11-21T06:26:57;7.50;99.90
12152;DHT22;6139;51.274;7.128;2023-11-21T06:27:59;7.50;99.90
12152;DHT22;6139;51.274;7.128;2023-11-21T06:29:00;7.60;99.90
12152;DHT22;6139;51.274;7.128;2023-11-21T06:30:04;7.60;99.90
12152;DHT22;6139;51.274;7.128;2023-11-21T06:31:07;7.60;99.90
12152;DHT22;6139;51.274;7.128;2023-11-21T06:32:09;7.60;99.90
12152;DHT22;6139;51.274;7.128;2023-11-21T06:33:10;7.60;99.90
12152;DHT22;6139;51.274;7.128;2023-11-21T06:34:12;7.60;99.90
12152;DHT22;6139;51.274;7.128;2023-11-21T06:35:14;7.60;99.90
12152;DHT22;6139;51.274;7.128;2023-11-21T06:36:16;7.60;99.90
12152;DHT22;6139;51.274;7.128;2023-11-21T06:37:18;7.60;99.90
12152;DHT22;6139;51.274;7.128;2023-11-21T06:38:21;7.60;99.90
12152;DHT22;6139;51.274;7.128;2023-11-21T06:39:23;7.60;99.90
12152;DHT22;6139;51.274;7.128;2023-11-21T06:40:24;7.60;99.90
12152;DHT22;6139;51.274;7.128;2023-11-21T06:41:26;7.60;99.90
12152;DHT22;6139;51.274;7.128;2023-11-21T06:42:28;7.60;99.90
12152;DHT22;6139;51.274;7.128;2023-11-21T06:43:30;7.60;99.90
12152;DHT22;6139;51.274;7.128;2023-11-21T06:44:32;7.70;99.90